sensor_id;sensor_type;location;lat;lon;timestamp;pressure;altitude;pressure_sealevel;temperature;humidity
75290;BME280;63883;48.996;20.804;2023-04-29T00:00:48;96482.09;;;6.48;79.38
75290;BME280;63883;48.996;20.804;2023-04-29T00:03:16;96489.72;;;6.45;80.32
75290;BME280;63883;48.996;20.804;2023-04-29T00:05:43;96486.41;;;6.40;80.08
75290;BME280;63883;48.996;20.804;2023-04-29T00:08:09;96493.16;;;6.39;80.79
75290;BME280;63883;48.996;20.804;2023-04-29T00:10:34;96487.28;;;6.36;81.01
75290;BME280;63883;48.996;20.804;2023-04-29T00:13:01;96489.03;;;6.32;81.03
75290;BME280;63883;48.996;20.804;2023-04-29T00:15:26;96498.31;;;6.32;80.71
75290;BME280;63883;48.996;20.804;2023-04-29T00:17:52;96497.50;;;6.30;80.86
75290;BME280;63883;48.996;20.804;2023-04-29T00:20:18;96494.13;;;6.27;80.86
75290;BME280;63883;48.996;20.804;2023-04-29T00:22:44;96495.03;;;6.25;80.95
75290;BME280;63883;48.996;20.804;2023-04-29T00:25:09;96496.72;;;6.24;80.94
75290;BME280;63883;48.996;20.804;2023-04-29T00:27:36;96491.66;;;6.23;81.08
75290;BME280;63883;48.996;20.804;2023-04-29T00:30:06;96501.78;;;6.26;81.22
75290;BME280;63883;48.996;20.804;2023-04-29T00:32:32;96490.66;;;6.35;80.70
75290;BME280;63883;48.996;20.804;2023-04-29T00:34:58;96487.28;;;6.36;80.33
75290;BME280;63883;48.996;20.804;2023-04-29T00:37:24;96495.56;;;6.50;79.22
75290;BME280;63883;48.996;20.804;2023-04-29T00:39:50;96491.31;;;6.52;79.64
75290;BME280;63883;48.996;20.804;2023-04-29T00:42:16;96500.66;;;6.48;79.34
75290;BME280;63883;48.996;20.804;2023-04-29T00:44:41;96494.81;;;6.42;79.96
75290;BME280;63883;48.996;20.804;2023-04-29T00:47:07;96482.13;;;6.42;79.89
75290;BME280;63883;48.996;20.804;2023-04-29T00:49:38;96488.84;;;6.47;79.64
75290;BME280;63883;48.996;20.804;2023-04-29T00:52:05;96492.06;;;6.60;79.03
75290;BME280;63883;48.996;20.804;2023-04-29T00:54:33;96491.19;;;6.61;78.75
75290;BME280;63883;48.996;20.804;2023-04-29T00:57:00;96489.53;;;6.57;79.21
75290;BME280;63883;48.996;20.804;2023-04-29T00:59:27;96489.59;;;6.54;79.28
75290;BME280;63883;48.996;20.804;2023-04-29T01:01:59;96487.06;;;6.55;79.48
75290;BME280;63883;48.996;20.804;2023-04-29T01:04:25;96491.28;;;6.53;78.92
75290;BME280;63883;48.996;20.804;2023-04-29T01:10:02;96487.16;;;6.48;79.54
75290;BME280;63883;48.996;20.804;2023-04-29T01:12:39;96493.06;;;6.48;79.92
75290;BME280;63883;48.996;20.804;2023-04-29T01:15:21;96485.47;;;6.47;79.91
75290;BME280;63883;48.996;20.804;2023-04-29T01:18:04;96482.94;;;6.48;80.22
75290;BME280;63883;48.996;20.804;2023-04-29T01:20:30;96474.41;;;6.52;80.40
75290;BME280;63883;48.996;20.804;2023-04-29T01:22:56;96482.69;;;6.63;79.93
75290;BME280;63883;48.996;20.804;2023-04-29T01:25:22;96481.00;;;6.64;79.63
75290;BME280;63883;48.996;20.804;2023-04-29T01:28:01;96478.50;;;6.62;80.24
75290;BME280;63883;48.996;20.804;2023-04-29T01:30:44;96475.91;;;6.65;80.48
75290;BME280;63883;48.996;20.804;2023-04-29T01:33:28;96481.00;;;6.64;80.62
75290;BME280;63883;48.996;20.804;2023-04-29T01:39:20;96477.63;;;6.65;81.25
75290;BME280;63883;48.996;20.804;2023-04-29T01:41:56;96484.47;;;6.58;80.48
75290;BME280;63883;48.996;20.804;2023-04-29T01:44:28;96466.75;;;6.57;80.77
75290;BME280;63883;48.996;20.804;2023-04-29T01:46:54;96468.47;;;6.55;81.00
75290;BME280;63883;48.996;20.804;2023-04-29T01:49:24;96471.00;;;6.55;81.34
75290;BME280;63883;48.996;20.804;2023-04-29T01:51:50;96474.31;;;6.58;81.40
75290;BME280;63883;48.996;20.804;2023-04-29T01:54:16;96476.84;;;6.60;81.53
75290;BME280;63883;48.996;20.804;2023-04-29T01:56:42;96471.78;;;6.58;81.61
75290;BME280;63883;48.996;20.804;2023-04-29T01:59:09;96473.50;;;6.58;82.11
75290;BME280;63883;48.996;20.804;2023-04-29T02:01:35;96478.56;;;6.58;82.64
75290;BME280;63883;48.996;20.804;2023-04-29T02:04:01;96471.00;;;6.55;82.45
75290;BME280;63883;48.996;20.804;2023-04-29T02:06:27;96478.56;;;6.58;81.77
75290;BME280;63883;48.996;20.804;2023-04-29T02:08:53;96476.88;;;6.57;82.09
75290;BME280;63883;48.996;20.804;2023-04-29T02:11:18;96474.34;;;6.57;82.68
75290;BME280;63883;48.996;20.804;2023-04-29T02:13:44;96473.41;;;6.64;82.93
75290;BME280;63883;48.996;20.804;2023-04-29T02:16:11;96472.50;;;6.70;83.31
75290;BME280;63883;48.996;20.804;2023-04-29T02:18:37;96480.03;;;6.76;83.01
75290;BME280;63883;48.996;20.804;2023-04-29T02:21:04;96474.97;;;6.74;82.94
75290;BME280;63883;48.996;20.804;2023-04-29T02:23:30;96474.88;;;6.80;82.61
75290;BME280;63883;48.996;20.804;2023-04-29T02:25:56;96472.38;;;6.77;82.83
75290;BME280;63883;48.996;20.804;2023-04-29T02:28:21;96472.47;;;6.71;83.63
75290;BME280;63883;48.996;20.804;2023-04-29T02:30:50;96477.56;;;6.70;83.21
75290;BME280;63883;48.996;20.804;2023-04-29T02:33:16;96469.97;;;6.68;83.54
75290;BME280;63883;48.996;20.804;2023-04-29T02:35:43;96466.63;;;6.66;84.57
75290;BME280;63883;48.996;20.804;2023-04-29T02:38:09;96460.78;;;6.62;84.84
75290;BME280;63883;48.996;20.804;2023-04-29T02:40:42;96468.31;;;6.67;84.38
75290;BME280;63883;48.996;20.804;2023-04-29T02:43:08;96471.69;;;6.68;84.52
75290;BME280;63883;48.996;20.804;2023-04-29T02:45:34;96467.38;;;6.71;84.62
75290;BME280;63883;48.996;20.804;2023-04-29T02:48:00;96458.16;;;6.67;85.31
75290;BME280;63883;48.996;20.804;2023-04-29T02:50:26;96464.06;;;6.69;86.26
75290;BME280;63883;48.996;20.804;2023-04-29T02:52:53;96465.72;;;6.70;85.98
75290;BME280;63883;48.996;20.804;2023-04-29T02:55:19;96473.34;;;6.69;86.33
75290;BME280;63883;48.996;20.804;2023-04-29T02:57:45;96463.25;;;6.67;85.66
75290;BME280;63883;48.996;20.804;2023-04-29T03:00:11;96462.31;;;6.71;85.27
75290;BME280;63883;48.996;20.804;2023-04-29T03:02:36;96472.34;;;6.79;85.31
75290;BME280;63883;48.996;20.804;2023-04-29T03:05:03;96471.56;;;6.75;85.32
75290;BME280;63883;48.996;20.804;2023-04-29T03:07:29;96482.47;;;6.82;85.82
75290;BME280;63883;48.996;20.804;2023-04-29T03:09:55;96475.69;;;6.84;86.16
75290;BME280;63883;48.996;20.804;2023-04-29T03:12:21;96472.25;;;6.86;85.47
75290;BME280;63883;48.996;20.804;2023-04-29T03:14:47;96475.72;;;6.79;86.18
75290;BME280;63883;48.996;20.804;2023-04-29T03:17:13;96477.50;;;6.73;86.69
75290;BME280;63883;48.996;20.804;2023-04-29T03:19:39;96475.91;;;6.67;87.49
75290;BME280;63883;48.996;20.804;2023-04-29T03:22:05;96473.44;;;6.62;88.46
75290;BME280;63883;48.996;20.804;2023-04-29T03:24:32;96476.88;;;6.58;88.95
75290;BME280;63883;48.996;20.804;2023-04-29T03:26:58;96478.63;;;6.55;88.81
75290;BME280;63883;48.996;20.804;2023-04-29T03:29:26;96476.09;;;6.53;88.58
75290;BME280;63883;48.996;20.804;2023-04-29T03:31:53;96476.09;;;6.55;88.92
75290;BME280;63883;48.996;20.804;2023-04-29T03:34:19;96476.03;;;6.56;88.76
75290;BME280;63883;48.996;20.804;2023-04-29T03:36:45;96471.81;;;6.57;88.81
75290;BME280;63883;48.996;20.804;2023-04-29T03:39:10;96470.94;;;6.61;88.69
75290;BME280;63883;48.996;20.804;2023-04-29T03:41:39;96472.63;;;6.60;88.42
75290;BME280;63883;48.996;20.804;2023-04-29T03:44:05;96481.06;;;6.62;88.79
75290;BME280;63883;48.996;20.804;2023-04-29T03:46:31;96478.53;;;6.61;89.53
75290;BME280;63883;48.996;20.804;2023-04-29T03:48:56;96477.69;;;6.62;89.32
75290;BME280;63883;48.996;20.804;2023-04-29T03:51:23;96477.63;;;6.63;89.65
75290;BME280;63883;48.996;20.804;2023-04-29T03:53:49;96479.31;;;6.63;89.94
75290;BME280;63883;48.996;20.804;2023-04-29T03:56:16;96483.59;;;6.62;91.04
75290;BME280;63883;48.996;20.804;2023-04-29T03:58:42;96484.38;;;6.63;91.14
75290;BME280;63883;48.996;20.804;2023-04-29T04:01:07;96485.97;;;6.73;91.05
75290;BME280;63883;48.996;20.804;2023-04-29T04:03:33;96477.53;;;6.71;90.50
75290;BME280;63883;48.996;20.804;2023-04-29T04:05:59;96483.50;;;6.67;90.71
75290;BME280;63883;48.996;20.804;2023-04-29T04:08:24;96483.44;;;6.72;90.86
75290;BME280;63883;48.996;20.804;2023-04-29T04:10:50;96475.84;;;6.72;90.88
75290;BME280;63883;48.996;20.804;2023-04-29T04:13:16;96479.22;;;6.71;90.94
75290;BME280;63883;48.996;20.804;2023-04-29T04:15:48;96479.19;;;6.74;90.55
75290;BME280;63883;48.996;20.804;2023-04-29T04:18:13;96471.59;;;6.72;90.46
75290;BME280;63883;48.996;20.804;2023-04-29T04:20:39;96479.97;;;6.77;90.50
75290;BME280;63883;48.996;20.804;2023-04-29T04:23:05;96468.97;;;6.78;90.45
75290;BME280;63883;48.996;20.804;2023-04-29T04:25:31;96469.81;;;6.80;90.39
75290;BME280;63883;48.996;20.804;2023-04-29T04:27:56;96472.31;;;6.83;90.24
75290;BME280;63883;48.996;20.804;2023-04-29T04:30:22;96468.06;;;6.84;90.20
75290;BME280;63883;48.996;20.804;2023-04-29T04:32:48;96461.31;;;6.84;90.64
75290;BME280;63883;48.996;20.804;2023-04-29T04:35:14;96459.56;;;6.88;90.93
75290;BME280;63883;48.996;20.804;2023-04-29T04:37:39;96462.97;;;6.85;90.86
75290;BME280;63883;48.996;20.804;2023-04-29T04:40:06;96463.78;;;6.87;91.20
75290;BME280;63883;48.996;20.804;2023-04-29T04:42:32;96462.91;;;6.90;92.34
75290;BME280;63883;48.996;20.804;2023-04-29T04:44:58;96473.03;;;6.91;92.48
75290;BME280;63883;48.996;20.804;2023-04-29T04:47:24;96466.22;;;6.93;91.97
75290;BME280;63883;48.996;20.804;2023-04-29T04:49:49;96471.44;;;6.84;91.36
75290;BME280;63883;48.996;20.804;2023-04-29T04:52:20;96480.03;;;6.74;90.64
75290;BME280;63883;48.996;20.804;2023-04-29T04:54:46;96475.84;;;6.72;90.01
75290;BME280;63883;48.996;20.804;2023-04-29T04:57:12;96479.22;;;6.71;89.03
75290;BME280;63883;48.996;20.804;2023-04-29T04:59:38;96478.47;;;6.64;89.20
75290;BME280;63883;48.996;20.804;2023-04-29T05:02:04;96472.59;;;6.62;88.64
75290;BME280;63883;48.996;20.804;2023-04-29T05:04:30;96466.63;;;6.64;88.65
75290;BME280;63883;48.996;20.804;2023-04-29T05:06:55;96469.16;;;6.68;88.09
75290;BME280;63883;48.996;20.804;2023-04-29T05:09:21;96467.50;;;6.63;87.57
75290;BME280;63883;48.996;20.804;2023-04-29T05:11:47;96478.50;;;6.62;88.14
75290;BME280;63883;48.996;20.804;2023-04-29T05:14:12;96477.63;;;6.63;87.28
75290;BME280;63883;48.996;20.804;2023-04-29T05:16:38;96473.44;;;6.62;87.10
75290;BME280;63883;48.996;20.804;2023-04-29T05:19:04;96474.31;;;6.60;86.88
75290;BME280;63883;48.996;20.804;2023-04-29T05:21:29;96479.41;;;6.57;86.45
75290;BME280;63883;48.996;20.804;2023-04-29T05:23:56;96478.56;;;6.58;85.77
75290;BME280;63883;48.996;20.804;2023-04-29T05:26:22;96485.34;;;6.56;85.36
75290;BME280;63883;48.996;20.804;2023-04-29T05:28:48;96482.78;;;6.57;84.40
75290;BME280;63883;48.996;20.804;2023-04-29T05:31:13;96474.31;;;6.61;84.71
75290;BME280;63883;48.996;20.804;2023-04-29T05:33:39;96482.69;;;6.65;85.26
75290;BME280;63883;48.996;20.804;2023-04-29T05:36:05;96479.22;;;6.71;85.88
75290;BME280;63883;48.996;20.804;2023-04-29T05:38:31;96476.63;;;6.77;86.82
75290;BME280;63883;48.996;20.804;2023-04-29T05:40:57;96483.31;;;6.81;86.63
75290;BME280;63883;48.996;20.804;2023-04-29T05:43:23;96484.94;;;6.85;87.09
75290;BME280;63883;48.996;20.804;2023-04-29T05:45:49;96468.81;;;6.90;87.34
75290;BME280;63883;48.996;20.804;2023-04-29T05:48:15;96477.91;;;7.03;86.66
75290;BME280;63883;48.996;20.804;2023-04-29T05:50:41;96479.44;;;7.14;86.24
75290;BME280;63883;48.996;20.804;2023-04-29T05:53:07;96480.97;;;7.24;86.60
75290;BME280;63883;48.996;20.804;2023-04-29T05:55:32;96486.75;;;7.32;86.74
75290;BME280;63883;48.996;20.804;2023-04-29T05:57:58;96482.50;;;7.34;87.41
75290;BME280;63883;48.996;20.804;2023-04-29T06:00:24;96484.22;;;7.32;87.39
75290;BME280;63883;48.996;20.804;2023-04-29T06:02:50;96482.56;;;7.31;87.41
75290;BME280;63883;48.996;20.804;2023-04-29T06:05:15;96499.25;;;7.42;87.55
75290;BME280;63883;48.996;20.804;2023-04-29T06:07:41;96495.81;;;7.48;87.17
75290;BME280;63883;48.996;20.804;2023-04-29T06:10:08;96488.00;;;7.59;87.69
75290;BME280;63883;48.996;20.804;2023-04-29T06:12:35;96481.94;;;7.67;88.26
75290;BME280;63883;48.996;20.804;2023-04-29T06:15:00;96485.94;;;7.80;88.42
75290;BME280;63883;48.996;20.804;2023-04-29T06:17:26;96483.94;;;7.98;88.15
75290;BME280;63883;48.996;20.804;2023-04-29T06:19:56;96486.22;;;8.10;87.96
75290;BME280;63883;48.996;20.804;2023-04-29T06:22:22;96486.81;;;8.22;87.65
75290;BME280;63883;48.996;20.804;2023-04-29T06:24:48;96485.06;;;8.26;87.18
75290;BME280;63883;48.996;20.804;2023-04-29T06:27:17;96488.56;;;8.20;86.80
75290;BME280;63883;48.996;20.804;2023-04-29T06:29:42;96481.84;;;8.18;86.91
75290;BME280;63883;48.996;20.804;2023-04-29T06:32:08;96486.75;;;8.26;87.61
75290;BME280;63883;48.996;20.804;2023-04-29T06:34:34;96487.47;;;8.35;86.67
75290;BME280;63883;48.996;20.804;2023-04-29T06:37:00;96483.13;;;8.39;86.56
75290;BME280;63883;48.996;20.804;2023-04-29T06:39:26;96483.94;;;8.42;87.04
75290;BME280;63883;48.996;20.804;2023-04-29T06:41:52;96488.09;;;8.45;86.86
75290;BME280;63883;48.996;20.804;2023-04-29T06:44:17;96488.09;;;8.45;87.14
75290;BME280;63883;48.996;20.804;2023-04-29T06:46:43;96481.25;;;8.48;87.54
75290;BME280;63883;48.996;20.804;2023-04-29T06:49:09;96482.00;;;8.53;88.14
75290;BME280;63883;48.996;20.804;2023-04-29T06:51:38;96487.66;;;8.65;88.07
75290;BME280;63883;48.996;20.804;2023-04-29T06:54:04;96487.72;;;8.63;87.22
75290;BME280;63883;48.996;20.804;2023-04-29T06:56:30;96486.81;;;8.66;87.46
75290;BME280;63883;48.996;20.804;2023-04-29T06:58:55;96486.72;;;8.70;86.52
75290;BME280;63883;48.996;20.804;2023-04-29T07:01:21;96481.72;;;8.66;85.90
75290;BME280;63883;48.996;20.804;2023-04-29T07:03:47;96484.25;;;8.66;85.24
75290;BME280;63883;48.996;20.804;2023-04-29T07:06:13;96477.44;;;8.68;84.33
75290;BME280;63883;48.996;20.804;2023-04-29T07:08:38;96481.53;;;8.75;83.45
75290;BME280;63883;48.996;20.804;2023-04-29T07:11:04;96482.22;;;8.81;82.29
75290;BME280;63883;48.996;20.804;2023-04-29T07:13:30;96483.75;;;8.90;81.88
75290;BME280;63883;48.996;20.804;2023-04-29T07:15:56;96484.25;;;9.04;81.77
75290;BME280;63883;48.996;20.804;2023-04-29T07:18:22;96484.94;;;9.12;79.55
75290;BME280;63883;48.996;20.804;2023-04-29T07:20:48;96493.44;;;9.11;77.55
75290;BME280;63883;48.996;20.804;2023-04-29T07:23:15;96485.06;;;9.08;76.99
75290;BME280;63883;48.996;20.804;2023-04-29T07:25:41;96486.53;;;9.16;76.58
75290;BME280;63883;48.996;20.804;2023-04-29T07:28:06;96480.19;;;9.34;75.92
75290;BME280;63883;48.996;20.804;2023-04-29T07:30:35;96479.88;;;9.46;78.67
75290;BME280;63883;48.996;20.804;2023-04-29T07:33:01;96481.28;;;9.58;79.32
75290;BME280;63883;48.996;20.804;2023-04-29T07:35:26;96484.44;;;9.67;81.61
75290;BME280;63883;48.996;20.804;2023-04-29T07:37:52;96481.69;;;9.75;81.40
75290;BME280;63883;48.996;20.804;2023-04-29T07:40:18;96481.47;;;9.84;81.68
75290;BME280;63883;48.996;20.804;2023-04-29T07:42:45;96486.22;;;9.96;80.31
75290;BME280;63883;48.996;20.804;2023-04-29T07:45:10;96475.63;;;10.11;78.38
75290;BME280;63883;48.996;20.804;2023-04-29T07:47:37;96481.88;;;10.32;79.82
75290;BME280;63883;48.996;20.804;2023-04-29T07:50:03;96486.72;;;10.41;77.29
75290;BME280;63883;48.996;20.804;2023-04-29T07:52:29;96495.09;;;10.45;74.67
75290;BME280;63883;48.996;20.804;2023-04-29T07:54:55;96493.28;;;10.50;74.36
75290;BME280;63883;48.996;20.804;2023-04-29T07:57:21;96492.34;;;10.52;73.79
75290;BME280;63883;48.996;20.804;2023-04-29T07:59:53;96486.41;;;10.52;76.17
75290;BME280;63883;48.996;20.804;2023-04-29T08:02:19;96492.31;;;10.54;74.68
75290;BME280;63883;48.996;20.804;2023-04-29T08:04:45;96482.25;;;10.49;75.65
75290;BME280;63883;48.996;20.804;2023-04-29T08:07:11;96492.41;;;10.51;76.43
75290;BME280;63883;48.996;20.804;2023-04-29T08:09:37;96491.50;;;10.52;76.91
75290;BME280;63883;48.996;20.804;2023-04-29T08:12:03;96490.63;;;10.53;75.39
75290;BME280;63883;48.996;20.804;2023-04-29T08:14:30;96496.53;;;10.55;75.60
75290;BME280;63883;48.996;20.804;2023-04-29T08:16:55;96497.56;;;10.48;75.71
75290;BME280;63883;48.996;20.804;2023-04-29T08:19:21;96489.63;;;10.59;75.74
75290;BME280;63883;48.996;20.804;2023-04-29T08:21:47;96493.63;;;10.67;75.11
75290;BME280;63883;48.996;20.804;2023-04-29T08:24:13;96492.69;;;10.70;74.63
75290;BME280;63883;48.996;20.804;2023-04-29T08:26:39;96494.63;;;10.62;74.98
75290;BME280;63883;48.996;20.804;2023-04-29T08:29:05;96496.66;;;10.80;74.31
75290;BME280;63883;48.996;20.804;2023-04-29T08:31:31;96503.72;;;11.00;74.08
75290;BME280;63883;48.996;20.804;2023-04-29T08:33:58;96494.13;;;11.08;73.43
75290;BME280;63883;48.996;20.804;2023-04-29T08:36:24;96499.53;;;11.25;72.10
75290;BME280;63883;48.996;20.804;2023-04-29T08:38:52;96500.03;;;11.36;72.46
75290;BME280;63883;48.996;20.804;2023-04-29T08:41:18;96497.91;;;11.49;71.76
75290;BME280;63883;48.996;20.804;2023-04-29T08:43:44;96488.91;;;11.63;70.71
75290;BME280;63883;48.996;20.804;2023-04-29T08:46:09;96498.41;;;11.86;69.23
75290;BME280;63883;48.996;20.804;2023-04-29T08:48:36;96491.16;;;11.99;70.59
75290;BME280;63883;48.996;20.804;2023-04-29T08:51:02;96499.94;;;12.17;65.21
75290;BME280;63883;48.996;20.804;2023-04-29T08:53:28;96495.94;;;12.33;66.20
75290;BME280;63883;48.996;20.804;2023-04-29T08:55:57;96489.28;;;12.52;61.93
75290;BME280;63883;48.996;20.804;2023-04-29T08:58:27;96487.59;;;12.74;60.63
75290;BME280;63883;48.996;20.804;2023-04-29T09:00:54;96492.19;;;12.88;58.74
75290;BME280;63883;48.996;20.804;2023-04-29T09:05:53;96485.75;;;13.23;56.40
75290;BME280;63883;48.996;20.804;2023-04-29T09:08:23;96478.06;;;13.45;55.90
75290;BME280;63883;48.996;20.804;2023-04-29T09:10:52;96478.13;;;13.63;57.19
75290;BME280;63883;48.996;20.804;2023-04-29T09:13:28;96476.91;;;13.72;56.22
75290;BME280;63883;48.996;20.804;2023-04-29T09:15:54;96479.69;;;14.08;53.55
75290;BME280;63883;48.996;20.804;2023-04-29T09:18:49;96485.25;;;14.18;52.90
75290;BME280;63883;48.996;20.804;2023-04-29T09:21:27;96475.91;;;14.35;51.41
75290;BME280;63883;48.996;20.804;2023-04-29T09:23:55;96477.03;;;14.30;51.77
75290;BME280;63883;48.996;20.804;2023-04-29T09:26:22;96475.22;;;14.32;53.11
75290;BME280;63883;48.996;20.804;2023-04-29T09:29:08;96473.81;;;14.45;52.92
75290;BME280;63883;48.996;20.804;2023-04-29T09:31:37;96478.16;;;14.43;50.18
75290;BME280;63883;48.996;20.804;2023-04-29T09:34:03;96466.41;;;14.58;52.39
75290;BME280;63883;48.996;20.804;2023-04-29T09:39:14;96473.38;;;14.92;51.19
75290;BME280;63883;48.996;20.804;2023-04-29T09:44:18;96474.44;;;14.50;49.00
75290;BME280;63883;48.996;20.804;2023-04-29T09:49:24;96470.72;;;14.37;48.57
75290;BME280;63883;48.996;20.804;2023-04-29T09:51:58;96464.31;;;14.27;50.28
75290;BME280;63883;48.996;20.804;2023-04-29T09:54:25;96466.97;;;14.05;51.02
75290;BME280;63883;48.996;20.804;2023-04-29T09:56:53;96457.94;;;13.76;52.67
75290;BME280;63883;48.996;20.804;2023-04-29T09:59:20;96458.66;;;13.80;51.84
75290;BME280;63883;48.996;20.804;2023-04-29T10:01:48;96458.69;;;13.98;52.20
75290;BME280;63883;48.996;20.804;2023-04-29T10:04:16;96449.19;;;14.60;51.37
75290;BME280;63883;48.996;20.804;2023-04-29T10:06:44;96455.59;;;15.24;49.33
75290;BME280;63883;48.996;20.804;2023-04-29T10:09:14;96443.75;;;15.56;48.22
75290;BME280;63883;48.996;20.804;2023-04-29T10:11:41;96447.09;;;15.58;46.73
75290;BME280;63883;48.996;20.804;2023-04-29T10:14:12;96445.78;;;15.14;46.79
75290;BME280;63883;48.996;20.804;2023-04-29T10:19:17;96445.88;;;14.76;48.71
75290;BME280;63883;48.996;20.804;2023-04-29T10:21:43;96437.41;;;14.74;49.70
75290;BME280;63883;48.996;20.804;2023-04-29T10:24:12;96446.56;;;14.61;49.45
75290;BME280;63883;48.996;20.804;2023-04-29T10:26:40;96438.19;;;14.94;48.93
75290;BME280;63883;48.996;20.804;2023-04-29T10:29:08;96435.78;;;14.91;48.76
75290;BME280;63883;48.996;20.804;2023-04-29T10:31:36;96432.53;;;15.40;48.66
75290;BME280;63883;48.996;20.804;2023-04-29T10:34:03;96440.34;;;15.03;48.92
75290;BME280;63883;48.996;20.804;2023-04-29T10:36:29;96436.09;;;15.02;49.63
75290;BME280;63883;48.996;20.804;2023-04-29T10:38:59;96431.00;;;14.83;48.44
75290;BME280;63883;48.996;20.804;2023-04-29T10:41:27;96430.94;;;14.66;49.38
75290;BME280;63883;48.996;20.804;2023-04-29T10:43:54;96426.03;;;14.61;49.37
75290;BME280;63883;48.996;20.804;2023-04-29T10:46:22;96419.84;;;14.65;48.74
75290;BME280;63883;48.996;20.804;2023-04-29T10:48:49;96424.97;;;14.65;48.95
75290;BME280;63883;48.996;20.804;2023-04-29T10:51:31;96420.81;;;14.63;49.71
75290;BME280;63883;48.996;20.804;2023-04-29T10:54:18;96396.66;;;14.48;50.91
75290;BME280;63883;48.996;20.804;2023-04-29T10:56:51;96424.44;;;14.20;50.74
75290;BME280;63883;48.996;20.804;2023-04-29T11:02:06;96415.63;;;14.06;51.09
75290;BME280;63883;48.996;20.804;2023-04-29T11:04:34;96406.91;;;14.11;50.64
75290;BME280;63883;48.996;20.804;2023-04-29T11:07:26;96411.94;;;14.12;50.01
75290;BME280;63883;48.996;20.804;2023-04-29T11:09:53;96413.22;;;14.22;51.35
75290;BME280;63883;48.996;20.804;2023-04-29T11:12:20;96411.59;;;14.20;51.09
75290;BME280;63883;48.996;20.804;2023-04-29T11:14:50;96413.16;;;14.24;50.92
75290;BME280;63883;48.996;20.804;2023-04-29T11:17:16;96418.22;;;14.25;50.82
75290;BME280;63883;48.996;20.804;2023-04-29T11:19:46;96407.47;;;14.36;50.59
75290;BME280;63883;48.996;20.804;2023-04-29T11:27:18;96415.84;;;14.21;51.01
75290;BME280;63883;48.996;20.804;2023-04-29T11:29:45;96412.66;;;14.16;51.19
75290;BME280;63883;48.996;20.804;2023-04-29T11:32:12;96422.91;;;14.16;50.96
75290;BME280;63883;48.996;20.804;2023-04-29T11:34:38;96419.88;;;14.26;50.62
75290;BME280;63883;48.996;20.804;2023-04-29T11:37:04;96403.91;;;14.40;50.77
75290;BME280;63883;48.996;20.804;2023-04-29T11:39:34;96414.34;;;14.73;50.55
75290;BME280;63883;48.996;20.804;2023-04-29T11:42:06;96415.38;;;14.88;48.69
75290;BME280;63883;48.996;20.804;2023-04-29T11:44:33;96402.78;;;15.00;48.01
75290;BME280;63883;48.996;20.804;2023-04-29T11:47:04;96399.09;;;15.06;47.25
75290;BME280;63883;48.996;20.804;2023-04-29T11:49:31;96397.75;;;15.50;47.33
75290;BME280;63883;48.996;20.804;2023-04-29T11:51:57;96398.50;;;15.87;46.22
75290;BME280;63883;48.996;20.804;2023-04-29T11:54:27;96391.56;;;15.37;48.18
75290;BME280;63883;48.996;20.804;2023-04-29T11:56:54;96395.88;;;15.71;48.84
75290;BME280;63883;48.996;20.804;2023-04-29T11:59:23;96391.22;;;15.95;46.53
75290;BME280;63883;48.996;20.804;2023-04-29T12:01:49;96393.16;;;16.40;44.94
75290;BME280;63883;48.996;20.804;2023-04-29T12:04:16;96390.69;;;16.06;45.91
75290;BME280;63883;48.996;20.804;2023-04-29T12:06:42;96383.50;;;16.59;44.55
75290;BME280;63883;48.996;20.804;2023-04-29T12:09:08;96384.50;;;16.25;45.61
75290;BME280;63883;48.996;20.804;2023-04-29T12:11:35;96390.00;;;16.02;47.64
75290;BME280;63883;48.996;20.804;2023-04-29T12:14:02;96383.63;;;16.42;45.07
75290;BME280;63883;48.996;20.804;2023-04-29T12:16:33;96373.31;;;16.89;43.51
75290;BME280;63883;48.996;20.804;2023-04-29T12:19:00;96380.97;;;16.75;43.78
75290;BME280;63883;48.996;20.804;2023-04-29T12:21:26;96378.63;;;16.55;44.93
75290;BME280;63883;48.996;20.804;2023-04-29T12:23:52;96379.03;;;16.31;44.56
75290;BME280;63883;48.996;20.804;2023-04-29T12:26:18;96376.78;;;16.25;44.83
75290;BME280;63883;48.996;20.804;2023-04-29T12:28:47;96373.13;;;16.29;45.17
75290;BME280;63883;48.996;20.804;2023-04-29T12:31:14;96375.78;;;16.28;43.92
75290;BME280;63883;48.996;20.804;2023-04-29T12:33:43;96358.41;;;16.94;42.97
75290;BME280;63883;48.996;20.804;2023-04-29T12:36:16;96363.44;;;16.66;43.79
75290;BME280;63883;48.996;20.804;2023-04-29T12:38:46;96354.97;;;16.48;44.18
75290;BME280;63883;48.996;20.804;2023-04-29T12:41:13;96351.53;;;16.48;44.59
75290;BME280;63883;48.996;20.804;2023-04-29T12:43:42;96342.00;;;16.65;44.24
75290;BME280;63883;48.996;20.804;2023-04-29T12:46:09;96345.34;;;16.67;44.48
75290;BME280;63883;48.996;20.804;2023-04-29T12:48:39;96345.22;;;16.37;44.50
75290;BME280;63883;48.996;20.804;2023-04-29T12:51:10;96338.59;;;16.33;46.00
75290;BME280;63883;48.996;20.804;2023-04-29T12:53:36;96342.22;;;16.29;44.41
75290;BME280;63883;48.996;20.804;2023-04-29T12:56:03;96336.34;;;16.27;45.53
75290;BME280;63883;48.996;20.804;2023-04-29T12:58:30;96339.44;;;16.34;46.31
75290;BME280;63883;48.996;20.804;2023-04-29T13:00:57;96343.81;;;16.48;45.69
75290;BME280;63883;48.996;20.804;2023-04-29T13:03:23;96347.31;;;16.47;44.37
75290;BME280;63883;48.996;20.804;2023-04-29T13:05:49;96345.41;;;16.34;46.56
75290;BME280;63883;48.996;20.804;2023-04-29T13:08:18;96338.00;;;16.44;45.91
75290;BME280;63883;48.996;20.804;2023-04-29T13:10:44;96339.25;;;16.53;43.81
75290;BME280;63883;48.996;20.804;2023-04-29T13:13:10;96340.91;;;16.54;45.57
75290;BME280;63883;48.996;20.804;2023-04-29T13:15:36;96335.72;;;16.71;44.15
75290;BME280;63883;48.996;20.804;2023-04-29T13:18:05;96336.13;;;16.63;44.09
75290;BME280;63883;48.996;20.804;2023-04-29T13:20:30;96335.41;;;16.60;43.91
75290;BME280;63883;48.996;20.804;2023-04-29T13:22:58;96335.41;;;16.60;45.71